sensor_id;sensor_type;location;lat;lon;timestamp;pressure;altitude;pressure_sealevel;temperature;humidity
29549;BME280;16487;53.094;8.800;2023-04-04T00:02:21;103043.53;;;1.56;100.00
29549;BME280;16487;53.094;8.800;2023-04-04T00:04:48;103055.34;;;1.48;100.00
29549;BME280;16487;53.094;8.800;2023-04-04T00:07:16;103043.69;;;1.51;100.00
29549;BME280;16487;53.094;8.800;2023-04-04T00:09:43;103045.50;;;1.47;100.00
29549;BME280;16487;53.094;8.800;2023-04-04T00:12:12;103049.22;;;1.43;100.00
29549;BME280;16487;53.094;8.800;2023-04-04T00:14:39;103042.59;;;1.44;100.00
29549;BME280;16487;53.094;8.800;2023-04-04T00:17:06;103049.53;;;1.41;100.00
29549;BME280;16487;53.094;8.800;2023-04-04T00:19:34;103035.31;;;1.48;100.00
29549;BME280;16487;53.094;8.800;2023-04-04T00:22:01;103027.56;;;1.41;100.00
29549;BME280;16487;53.094;8.800;2023-04-04T00:24:28;103030.31;;;1.33;100.00
29549;BME280;16487;53.094;8.800;2023-04-04T00:26:56;103016.25;;;1.34;100.00
29549;BME280;16487;53.094;8.800;2023-04-04T00:29:24;103006.56;;;1.37;100.00
29549;BME280;16487;53.094;8.800;2023-04-04T00:31:52;103007.53;;;1.32;100.00
29549;BME280;16487;53.094;8.800;2023-04-04T00:34:19;102993.81;;;1.24;100.00
29549;BME280;16487;53.094;8.800;2023-04-04T00:36:47;102982.03;;;1.06;100.00
29549;BME280;16487;53.094;8.800;2023-04-04T00:39:15;102973.28;;;1.04;100.00
29549;BME280;16487;53.094;8.800;2023-04-04T00:41:42;102962.97;;;1.01;100.00
29549;BME280;16487;53.094;8.800;2023-04-04T00:44:10;102957.16;;;0.94;100.00
29549;BME280;16487;53.094;8.800;2023-04-04T00:46:40;102958.44;;;1.05;100.00
29549;BME280;16487;53.094;8.800;2023-04-04T00:49:08;102949.22;;;1.09;100.00
29549;BME280;16487;53.094;8.800;2023-04-04T00:51:35;102948.28;;;1.05;100.00
29549;BME280;16487;53.094;8.800;2023-04-04T00:54:02;102942.50;;;0.90;100.00
29549;BME280;16487;53.094;8.800;2023-04-04T00:56:31;102933.91;;;1.00;100.00
29549;BME280;16487;53.094;8.800;2023-04-04T00:58:59;102917.44;;;1.00;100.00
29549;BME280;16487;53.094;8.800;2023-04-04T01:01:27;102912.09;;;1.03;100.00
29549;BME280;16487;53.094;8.800;2023-04-04T01:03:56;102902.72;;;1.04;100.00
29549;BME280;16487;53.094;8.800;2023-04-04T01:06:23;102902.75;;;0.96;100.00
29549;BME280;16487;53.094;8.800;2023-04-04T01:08:51;102902.75;;;0.96;100.00
29549;BME280;16487;53.094;8.800;2023-04-04T01:11:19;102897.25;;;0.96;100.00
29549;BME280;16487;53.094;8.800;2023-04-04T01:13:47;102897.41;;;0.99;100.00
29549;BME280;16487;53.094;8.800;2023-04-04T01:16:16;102894.81;;;1.03;100.00
29549;BME280;16487;53.094;8.800;2023-04-04T01:18:44;102889.03;;;0.96;100.00
29549;BME280;16487;53.094;8.800;2023-04-04T01:21:15;102888.53;;;0.94;100.00
29549;BME280;16487;53.094;8.800;2023-04-04T01:23:51;102885.00;;;0.93;100.00
29549;BME280;16487;53.094;8.800;2023-04-04T01:26:27;102889.19;;;0.91;100.00
29549;BME280;16487;53.094;8.800;2023-04-04T01:28:59;102883.06;;;0.85;100.00
29549;BME280;16487;53.094;8.800;2023-04-04T01:31:29;102894.53;;;0.79;100.00
29549;BME280;16487;53.094;8.800;2023-04-04T01:34:05;102911.31;;;0.77;100.00
29549;BME280;16487;53.094;8.800;2023-04-04T01:36:42;102906.97;;;0.68;100.00
29549;BME280;16487;53.094;8.800;2023-04-04T01:39:17;102904.03;;;0.73;100.00
29549;BME280;16487;53.094;8.800;2023-04-04T01:41:50;102910.34;;;0.65;100.00
29549;BME280;16487;53.094;8.800;2023-04-04T01:44:18;102912.78;;;0.66;100.00
29549;BME280;16487;53.094;8.800;2023-04-04T01:46:46;102925.06;;;0.69;100.00
29549;BME280;16487;53.094;8.800;2023-04-04T01:49:14;102925.84;;;0.61;100.00
29549;BME280;16487;53.094;8.800;2023-04-04T01:51:42;102924.56;;;0.67;100.00
29549;BME280;16487;53.094;8.800;2023-04-04T01:54:09;102924.25;;;0.60;100.00
29549;BME280;16487;53.094;8.800;2023-04-04T01:56:37;102929.22;;;0.58;100.00
29549;BME280;16487;53.094;8.800;2023-04-04T01:59:05;102923.25;;;0.56;100.00
29549;BME280;16487;53.094;8.800;2023-04-04T02:01:33;102922.63;;;0.67;100.00
29549;BME280;16487;53.094;8.800;2023-04-04T02:04:01;102921.97;;;0.53;100.00
29549;BME280;16487;53.094;8.800;2023-04-04T02:06:28;102913.44;;;0.63;100.00
29549;BME280;16487;53.094;8.800;2023-04-04T02:08:56;102923.56;;;0.80;100.00
29549;BME280;16487;53.094;8.800;2023-04-04T02:11:24;102926.31;;;0.63;100.00
29549;BME280;16487;53.094;8.800;2023-04-04T02:13:51;102931.81;;;0.54;100.00
29549;BME280;16487;53.094;8.800;2023-04-04T02:16:20;102927.78;;;0.52;100.00
29549;BME280;16487;53.094;8.800;2023-04-04T02:18:48;102917.28;;;0.54;100.00
29549;BME280;16487;53.094;8.800;2023-04-04T02:21:15;102917.78;;;0.56;100.00
29549;BME280;16487;53.094;8.800;2023-04-04T02:23:42;102923.91;;;0.53;100.00
29549;BME280;16487;53.094;8.800;2023-04-04T02:26:09;102934.38;;;0.42;100.00
29549;BME280;16487;53.094;8.800;2023-04-04T02:28:37;102933.09;;;0.40;100.00
29549;BME280;16487;53.094;8.800;2023-04-04T02:31:06;102921.34;;;0.48;100.00
29549;BME280;16487;53.094;8.800;2023-04-04T02:33:35;102933.91;;;0.49;100.00
29549;BME280;16487;53.094;8.800;2023-04-04T02:36:05;102940.19;;;0.49;100.00
29549;BME280;16487;53.094;8.800;2023-04-04T02:38:32;102931.16;;;0.49;100.00
29549;BME280;16487;53.094;8.800;2023-04-04T02:41:03;102920.84;;;0.54;100.00
29549;BME280;16487;53.094;8.800;2023-04-04T02:43:31;102933.13;;;0.48;100.00
29549;BME280;16487;53.094;8.800;2023-04-04T02:45:59;102933.44;;;0.47;100.00
29549;BME280;16487;53.094;8.800;2023-04-04T02:48:38;102934.38;;;0.51;100.00
29549;BME280;16487;53.094;8.800;2023-04-04T02:51:06;102937.63;;;0.53;100.00
29549;BME280;16487;53.094;8.800;2023-04-04T02:53:33;102937.28;;;0.46;100.00
29549;BME280;16487;53.094;8.800;2023-04-04T02:56:12;102938.78;;;0.52;100.00
29549;BME280;16487;53.094;8.800;2023-04-04T02:58:39;102952.00;;;0.50;100.00
29549;BME280;16487;53.094;8.800;2023-04-04T03:01:08;102948.75;;;0.48;100.00
29549;BME280;16487;53.094;8.800;2023-04-04T03:03:39;102947.59;;;0.40;100.00
29549;BME280;16487;53.094;8.800;2023-04-04T03:06:06;102946.47;;;0.33;100.00
29549;BME280;16487;53.094;8.800;2023-04-04T03:08:34;102939.69;;;0.30;100.00
29549;BME280;16487;53.094;8.800;2023-04-04T03:11:01;102932.44;;;0.26;100.00
29549;BME280;16487;53.094;8.800;2023-04-04T03:13:29;102928.56;;;0.35;100.00
29549;BME280;16487;53.094;8.800;2023-04-04T03:15:58;102915.50;;;0.24;100.00
29549;BME280;16487;53.094;8.800;2023-04-04T03:18:27;102916.75;;;0.18;100.00
29549;BME280;16487;53.094;8.800;2023-04-04T03:20:55;102915.81;;;0.31;100.00
29549;BME280;16487;53.094;8.800;2023-04-04T03:23:23;102906.13;;;0.25;100.00
29549;BME280;16487;53.094;8.800;2023-04-04T03:25:50;102903.56;;;0.37;100.00
29549;BME280;16487;53.094;8.800;2023-04-04T03:28:18;102909.03;;;0.37;100.00
29549;BME280;16487;53.094;8.800;2023-04-04T03:30:45;102907.59;;;0.31;100.00
29549;BME280;16487;53.094;8.800;2023-04-04T03:33:13;102908.25;;;0.36;100.00
29549;BME280;16487;53.094;8.800;2023-04-04T03:35:41;102906.63;;;0.27;100.00
29549;BME280;16487;53.094;8.800;2023-04-04T03:38:10;102905.63;;;0.23;100.00
29549;BME280;16487;53.094;8.800;2023-04-04T03:40:37;102895.00;;;0.38;100.00
29549;BME280;16487;53.094;8.800;2023-04-04T03:43:10;102886.59;;;0.26;100.00
29549;BME280;16487;53.094;8.800;2023-04-04T03:45:38;102878.72;;;0.25;100.00
29549;BME280;16487;53.094;8.800;2023-04-04T03:48:06;102867.72;;;0.08;100.00
29549;BME280;16487;53.094;8.800;2023-04-04T03:50:37;102854.50;;;0.10;100.00
29549;BME280;16487;53.094;8.800;2023-04-04T03:53:04;102841.28;;;0.12;100.00
29549;BME280;16487;53.094;8.800;2023-04-04T03:55:34;102844.19;;;0.07;100.00
29549;BME280;16487;53.094;8.800;2023-04-04T03:58:01;102830.66;;;0.02;100.00
29549;BME280;16487;53.094;8.800;2023-04-04T04:00:28;102822.44;;;0.02;100.00
29549;BME280;16487;53.094;8.800;2023-04-04T04:02:55;102816.63;;;0.03;100.00
29549;BME280;16487;53.094;8.800;2023-04-04T04:05:23;102814.81;;;-0.02;100.00
29549;BME280;16487;53.094;8.800;2023-04-04T04:07:51;102808.88;;;-0.04;100.00
29549;BME280;16487;53.094;8.800;2023-04-04T04:10:18;102797.44;;;-0.06;100.00
29549;BME280;16487;53.094;8.800;2023-04-04T04:12:47;102791.28;;;-0.11;100.00
29549;BME280;16487;53.094;8.800;2023-04-04T04:15:14;102769.03;;;-0.18;100.00
29549;BME280;16487;53.094;8.800;2023-04-04T04:17:43;102754.19;;;-0.17;100.00
29549;BME280;16487;53.094;8.800;2023-04-04T04:20:12;102750.66;;;-0.18;100.00
29549;BME280;16487;53.094;8.800;2023-04-04T04:22:47;102737.44;;;-0.16;100.00
29549;BME280;16487;53.094;8.800;2023-04-04T04:25:15;102717.94;;;-0.06;100.00
29549;BME280;16487;53.094;8.800;2023-04-04T04:27:54;102711.66;;;-0.15;100.00
29549;BME280;16487;53.094;8.800;2023-04-04T04:30:21;102700.69;;;-0.15;100.00
29549;BME280;16487;53.094;8.800;2023-04-04T04:32:49;102678.78;;;-0.15;100.00
29549;BME280;16487;53.094;8.800;2023-04-04T04:35:20;102674.91;;;-0.14;100.00
29549;BME280;16487;53.094;8.800;2023-04-04T04:37:48;102663.78;;;-0.17;100.00
29549;BME280;16487;53.094;8.800;2023-04-04T04:40:16;102657.84;;;-0.11;100.00
29549;BME280;16487;53.094;8.800;2023-04-04T04:42:55;102651.06;;;-0.13;100.00
29549;BME280;16487;53.094;8.800;2023-04-04T04:45:23;102650.25;;;-0.14;100.00
29549;BME280;16487;53.094;8.800;2023-04-04T04:48:02;102646.72;;;-0.14;100.00
29549;BME280;16487;53.094;8.800;2023-04-04T04:50:32;102647.66;;;-0.19;100.00
29549;BME280;16487;53.094;8.800;2023-04-04T04:52:59;102653.78;;;-0.13;100.00
29549;BME280;16487;53.094;8.800;2023-04-04T04:55:27;102660.25;;;-0.18;100.00
29549;BME280;16487;53.094;8.800;2023-04-04T04:58:08;102649.75;;;-0.16;100.00
29549;BME280;16487;53.094;8.800;2023-04-04T05:00:37;102653.97;;;-0.27;100.00
29549;BME280;16487;53.094;8.800;2023-04-04T05:03:06;102640.59;;;-0.28;100.00
29549;BME280;16487;53.094;8.800;2023-04-04T05:05:42;102646.25;;;-0.25;100.00
29549;BME280;16487;53.094;8.800;2023-04-04T05:08:12;102639.28;;;-0.14;100.00
29549;BME280;16487;53.094;8.800;2023-04-04T05:10:51;102649.47;;;-0.23;100.00
29549;BME280;16487;53.094;8.800;2023-04-04T05:13:20;102649.59;;;-0.28;100.00
29549;BME280;16487;53.094;8.800;2023-04-04T05:15:48;102648.00;;;-0.29;100.00
29549;BME280;16487;53.094;8.800;2023-04-04T05:18:17;102648.34;;;-0.39;100.00
29549;BME280;16487;53.094;8.800;2023-04-04T05:20:49;102648.16;;;-0.34;100.00
29549;BME280;16487;53.094;8.800;2023-04-04T05:23:17;102659.94;;;-0.25;100.00
29549;BME280;16487;53.094;8.800;2023-04-04T05:25:47;102659.28;;;-0.30;100.00
29549;BME280;16487;53.094;8.800;2023-04-04T05:28:15;102661.69;;;-0.29;100.00
29549;BME280;16487;53.094;8.800;2023-04-04T05:30:44;102667.34;;;-0.34;100.00
29549;BME280;16487;53.094;8.800;2023-04-04T05:33:16;102667.66;;;-0.27;100.00
29549;BME280;16487;53.094;8.800;2023-04-04T05:35:51;102676.22;;;-0.20;100.00
29549;BME280;16487;53.094;8.800;2023-04-04T05:38:18;102683.13;;;-0.14;100.00
29549;BME280;16487;53.094;8.800;2023-04-04T05:40:52;102695.88;;;-0.18;100.00
29549;BME280;16487;53.094;8.800;2023-04-04T05:43:20;102706.16;;;0.03;100.00
29549;BME280;16487;53.094;8.800;2023-04-04T05:45:59;102721.97;;;0.06;100.00
29549;BME280;16487;53.094;8.800;2023-04-04T05:48:32;102733.41;;;0.16;100.00
29549;BME280;16487;53.094;8.800;2023-04-04T05:51:01;102753.41;;;0.25;100.00
29549;BME280;16487;53.094;8.800;2023-04-04T05:53:48;102764.19;;;0.39;100.00
29549;BME280;16487;53.094;8.800;2023-04-04T05:56:23;102783.22;;;0.44;100.00
29549;BME280;16487;53.094;8.800;2023-04-04T05:58:52;102794.81;;;0.49;100.00
29549;BME280;16487;53.094;8.800;2023-04-04T06:01:21;102809.19;;;0.46;100.00
29549;BME280;16487;53.094;8.800;2023-04-04T06:03:52;102818.38;;;0.42;100.00
29549;BME280;16487;53.094;8.800;2023-04-04T06:06:24;102828.06;;;0.48;100.00
29549;BME280;16487;53.094;8.800;2023-04-04T06:08:52;102829.66;;;0.49;100.00
29549;BME280;16487;53.094;8.800;2023-04-04T06:11:20;102830.47;;;0.66;100.00
29549;BME280;16487;53.094;8.800;2023-04-04T06:13:48;102842.09;;;0.63;100.00
29549;BME280;16487;53.094;8.800;2023-04-04T06:16:17;102847.59;;;0.63;100.00
29549;BME280;16487;53.094;8.800;2023-04-04T06:18:46;102859.38;;;0.64;100.00
29549;BME280;16487;53.094;8.800;2023-04-04T06:21:13;102872.44;;;0.58;100.00
29549;BME280;16487;53.094;8.800;2023-04-04T06:23:41;102865.19;;;0.62;100.00
29549;BME280;16487;53.094;8.800;2023-04-04T06:26:08;102865.97;;;0.54;100.00
29549;BME280;16487;53.094;8.800;2023-04-04T06:28:45;102872.28;;;0.55;100.00
29549;BME280;16487;53.094;8.800;2023-04-04T06:31:13;102876.94;;;0.63;100.00
29549;BME280;16487;53.094;8.800;2023-04-04T06:33:40;102874.84;;;0.77;100.00
29549;BME280;16487;53.094;8.800;2023-04-04T06:36:09;102886.16;;;0.67;100.00
29549;BME280;16487;53.094;8.800;2023-04-04T06:38:37;102888.38;;;0.82;100.00
29549;BME280;16487;53.094;8.800;2023-04-04T06:41:13;102893.22;;;1.02;100.00
29549;BME280;16487;53.094;8.800;2023-04-04T06:43:40;102894.84;;;0.86;100.00
29549;BME280;16487;53.094;8.800;2023-04-04T06:46:08;102904.66;;;1.04;100.00
29549;BME280;16487;53.094;8.800;2023-04-04T06:48:36;102909.34;;;1.12;100.00
29549;BME280;16487;53.094;8.800;2023-04-04T06:51:04;102926.78;;;1.16;100.00
29549;BME280;16487;53.094;8.800;2023-04-04T06:53:34;102931.28;;;1.29;100.00
29549;BME280;16487;53.094;8.800;2023-04-04T06:56:01;102944.22;;;1.20;100.00
29549;BME280;16487;53.094;8.800;2023-04-04T06:58:28;102949.53;;;1.16;100.00
29549;BME280;16487;53.094;8.800;2023-04-04T07:00:56;102956.63;;;1.35;100.00
29549;BME280;16487;53.094;8.800;2023-04-04T07:03:23;102953.38;;;1.41;100.00
29549;BME280;16487;53.094;8.800;2023-04-04T07:05:50;102964.38;;;1.33;100.00
29549;BME280;16487;53.094;8.800;2023-04-04T07:08:18;102966.94;;;1.46;100.00
29549;BME280;16487;53.094;8.800;2023-04-04T07:10:47;102976.63;;;1.61;100.00
29549;BME280;16487;53.094;8.800;2023-04-04T07:13:14;102971.72;;;1.75;100.00
29549;BME280;16487;53.094;8.800;2023-04-04T07:15:44;102989.16;;;1.79;100.00
29549;BME280;16487;53.094;8.800;2023-04-04T07:18:11;103003.69;;;1.88;100.00
29549;BME280;16487;53.094;8.800;2023-04-04T07:20:39;102992.47;;;2.01;100.00
29549;BME280;16487;53.094;8.800;2023-04-04T07:23:06;103006.69;;;2.03;100.00
29549;BME280;16487;53.094;8.800;2023-04-04T07:25:34;103007.94;;;2.14;100.00
29549;BME280;16487;53.094;8.800;2023-04-04T07:28:02;103023.97;;;2.12;100.00
29549;BME280;16487;53.094;8.800;2023-04-04T07:30:39;103021.13;;;2.29;100.00
29549;BME280;16487;53.094;8.800;2023-04-04T07:33:07;103030.25;;;2.51;100.00
29549;BME280;16487;53.094;8.800;2023-04-04T07:35:34;103037.09;;;2.65;100.00
29549;BME280;16487;53.094;8.800;2023-04-04T07:38:02;103045.13;;;2.50;100.00
29549;BME280;16487;53.094;8.800;2023-04-04T07:40:29;103052.22;;;2.59;100.00
29549;BME280;16487;53.094;8.800;2023-04-04T07:42:56;103055.06;;;2.71;100.00
29549;BME280;16487;53.094;8.800;2023-04-04T07:45:25;103061.78;;;2.82;100.00
29549;BME280;16487;53.094;8.800;2023-04-04T07:47:52;103070.66;;;3.08;100.00
29549;BME280;16487;53.094;8.800;2023-04-04T07:50:19;103081.09;;;3.23;100.00
29549;BME280;16487;53.094;8.800;2023-04-04T07:52:50;103097.56;;;3.53;100.00
29549;BME280;16487;53.094;8.800;2023-04-04T07:55:18;103116.50;;;3.75;100.00
29549;BME280;16487;53.094;8.800;2023-04-04T07:57:45;103130.53;;;3.82;100.00
29549;BME280;16487;53.094;8.800;2023-04-04T08:00:13;103135.25;;;3.81;100.00
29549;BME280;16487;53.094;8.800;2023-04-04T08:02:43;103138.00;;;3.81;100.00
29549;BME280;16487;53.094;8.800;2023-04-04T08:05:10;103140.53;;;4.07;100.00
29549;BME280;16487;53.094;8.800;2023-04-04T08:07:38;103153.50;;;4.06;100.00
29549;BME280;16487;53.094;8.800;2023-04-04T08:10:07;103161.41;;;3.96;100.00
29549;BME280;16487;53.094;8.800;2023-04-04T08:12:34;103162.22;;;3.96;100.00
29549;BME280;16487;53.094;8.800;2023-04-04T08:15:02;103164.06;;;4.04;100.00
29549;BME280;16487;53.094;8.800;2023-04-04T08:17:29;103177.22;;;4.19;100.00
29549;BME280;16487;53.094;8.800;2023-04-04T08:19:58;103177.06;;;4.48;100.00
29549;BME280;16487;53.094;8.800;2023-04-04T08:22:25;103185.13;;;4.41;100.00
29549;BME280;16487;53.094;8.800;2023-04-04T08:24:52;103185.28;;;4.24;100.00
29549;BME280;16487;53.094;8.800;2023-04-04T08:27:19;103184.19;;;4.37;100.00
29549;BME280;16487;53.094;8.800;2023-04-04T08:29:46;103185.78;;;4.38;100.00
29549;BME280;16487;53.094;8.800;2023-04-04T08:32:14;103185.03;;;4.17;100.00
29549;BME280;16487;53.094;8.800;2023-04-04T08:34:41;103175.13;;;4.49;100.00
29549;BME280;16487;53.094;8.800;2023-04-04T08:37:10;103180.06;;;4.55;100.00
29549;BME280;16487;53.094;8.800;2023-04-04T08:39:37;103177.31;;;4.67;100.00
29549;BME280;16487;53.094;8.800;2023-04-04T08:42:06;103170.91;;;4.76;100.00
29549;BME280;16487;53.094;8.800;2023-04-04T08:44:33;103172.63;;;4.92;100.00
29549;BME280;16487;53.094;8.800;2023-04-04T08:47:02;103168.72;;;4.81;100.00
29549;BME280;16487;53.094;8.800;2023-04-04T08:49:32;103169.50;;;4.69;100.00
29549;BME280;16487;53.094;8.800;2023-04-04T08:52:02;103168.50;;;4.86;100.00
29549;BME280;16487;53.094;8.800;2023-04-04T08:54:32;103171.13;;;4.95;100.00
29549;BME280;16487;53.094;8.800;2023-04-04T08:57:00;103170.91;;;5.12;100.00
29549;BME280;16487;53.094;8.800;2023-04-04T08:59:28;103160.78;;;5.16;100.00
29549;BME280;16487;53.094;8.800;2023-04-04T09:02:02;103160.53;;;5.09;100.00
29549;BME280;16487;53.094;8.800;2023-04-04T09:04:30;103165.56;;;5.43;100.00
29549;BME280;16487;53.094;8.800;2023-04-04T09:06:59;103163.88;;;5.66;100.00
29549;BME280;16487;53.094;8.800;2023-04-04T09:09:27;103153.91;;;5.89;100.00
29549;BME280;16487;53.094;8.800;2023-04-04T09:11:55;103163.16;;;6.09;100.00
29549;BME280;16487;53.094;8.800;2023-04-04T09:14:23;103151.84;;;6.29;100.00
29549;BME280;16487;53.094;8.800;2023-04-04T09:16:51;103155.34;;;6.26;100.00
29549;BME280;16487;53.094;8.800;2023-04-04T09:19:19;103149.47;;;6.59;100.00
29549;BME280;16487;53.094;8.800;2023-04-04T09:21:46;103145.81;;;5.96;100.00
29549;BME280;16487;53.094;8.800;2023-04-04T09:24:14;103132.13;;;6.46;100.00
29549;BME280;16487;53.094;8.800;2023-04-04T09:26:48;103142.94;;;6.51;100.00
29549;BME280;16487;53.094;8.800;2023-04-04T09:29:18;103144.44;;;6.18;100.00
29549;BME280;16487;53.094;8.800;2023-04-04T09:31:45;103143.53;;;6.14;100.00
29549;BME280;16487;53.094;8.800;2023-04-04T09:34:14;103133.00;;;6.19;100.00
29549;BME280;16487;53.094;8.800;2023-04-04T09:36:43;103142.56;;;6.37;100.00
29549;BME280;16487;53.094;8.800;2023-04-04T09:39:10;103136.44;;;6.44;100.00
29549;BME280;16487;53.094;8.800;2023-04-04T09:41:38;103120.69;;;6.63;100.00
29549;BME280;16487;53.094;8.800;2023-04-04T09:44:05;103120.25;;;6.61;100.00
29549;BME280;16487;53.094;8.800;2023-04-04T09:46:34;103120.88;;;6.55;100.00
29549;BME280;16487;53.094;8.800;2023-04-04T09:49:02;103121.31;;;6.72;100.00
29549;BME280;16487;53.094;8.800;2023-04-04T09:51:35;103120.47;;;6.87;100.00
29549;BME280;16487;53.094;8.800;2023-04-04T09:54:03;103124.94;;;7.08;100.00
29549;BME280;16487;53.094;8.800;2023-04-04T09:56:32;103107.34;;;7.19;100.00
29549;BME280;16487;53.094;8.800;2023-04-04T09:58:59;103102.88;;;7.49;100.00
29549;BME280;16487;53.094;8.800;2023-04-04T10:01:31;103094.16;;;8.31;100.00
29549;BME280;16487;53.094;8.800;2023-04-04T10:04:02;103087.38;;;8.09;100.00
29549;BME280;16487;53.094;8.800;2023-04-04T10:06:30;103086.81;;;9.20;100.00
29549;BME280;16487;53.094;8.800;2023-04-04T10:08:57;103075.44;;;9.62;100.00
29549;BME280;16487;53.094;8.800;2023-04-04T10:11:29;103075.78;;;9.27;100.00
29549;BME280;16487;53.094;8.800;2023-04-04T10:13:57;103073.06;;;9.64;100.00
29549;BME280;16487;53.094;8.800;2023-04-04T10:16:25;103034.03;;;10.95;100.00
29549;BME280;16487;53.094;8.800;2023-04-04T10:18:53;103057.69;;;10.10;100.00
29549;BME280;16487;53.094;8.800;2023-04-04T10:21:22;103041.66;;;11.05;100.00
29549;BME280;16487;53.094;8.800;2023-04-04T10:23:51;103037.91;;;11.62;100.00
29549;BME280;16487;53.094;8.800;2023-04-04T10:26:19;103035.84;;;10.66;100.00
29549;BME280;16487;53.094;8.800;2023-04-04T10:28:46;103034.75;;;11.60;100.00
29549;BME280;16487;53.094;8.800;2023-04-04T10:31:16;103046.78;;;10.38;100.00
29549;BME280;16487;53.094;8.800;2023-04-04T10:33:50;103024.06;;;11.94;100.00
29549;BME280;16487;53.094;8.800;2023-04-04T10:36:22;103016.75;;;11.50;100.00
29549;BME280;16487;53.094;8.800;2023-04-04T10:38:58;103016.19;;;11.06;100.00
29549;BME280;16487;53.094;8.800;2023-04-04T10:41:30;103021.06;;;10.11;100.00
29549;BME280;16487;53.094;8.800;2023-04-04T10:44:01;103008.97;;;11.05;100.00
29549;BME280;16487;53.094;8.800;2023-04-04T10:46:35;103008.34;;;11.47;100.00
29549;BME280;16487;53.094;8.800;2023-04-04T10:49:06;103012.22;;;11.14;100.00
29549;BME280;16487;53.094;8.800;2023-04-04T10:51:35;103017.22;;;10.23;100.00
29549;BME280;16487;53.094;8.800;2023-04-04T10:54:15;102992.09;;;12.54;100.00
29549;BME280;16487;53.094;8.800;2023-04-04T10:56:43;103002.31;;;10.56;100.00
29549;BME280;16487;53.094;8.800;2023-04-04T10:59:12;102990.78;;;11.50;100.00
29549;BME280;16487;53.094;8.800;2023-04-04T11:01:53;102978.91;;;11.85;100.00
29549;BME280;16487;53.094;8.800;2023-04-04T11:04:29;102974.50;;;12.61;100.00
29549;BME280;16487;53.094;8.800;2023-04-04T11:07:12;102968.81;;;12.96;100.00
29549;BME280;16487;53.094;8.800;2023-04-04T11:09:53;102966.50;;;12.66;100.00
29549;BME280;16487;53.094;8.800;2023-04-04T11:12:28;102958.41;;;13.07;100.00
29549;BME280;16487;53.094;8.800;2023-04-04T11:15:05;102955.31;;;13.56;100.00
29549;BME280;16487;53.094;8.800;2023-04-04T11:20:53;102957.69;;;12.72;100.00
29549;BME280;16487;53.094;8.800;2023-04-04T11:23:21;102957.94;;;13.19;100.00
29549;BME280;16487;53.094;8.800;2023-04-04T11:25:49;102965.69;;;13.59;100.00
29549;BME280;16487;53.094;8.800;2023-04-04T11:28:41;102949.41;;;13.37;100.00
29549;BME280;16487;53.094;8.800;2023-04-04T11:31:23;102962.56;;;12.43;100.00
29549;BME280;16487;53.094;8.800;2023-04-04T11:33:54;102924.56;;;15.92;100.00
29549;BME280;16487;53.094;8.800;2023-04-04T11:36:47;102909.69;;;15.42;100.00
29549;BME280;16487;53.094;8.800;2023-04-04T11:39:24;102909.47;;;15.82;100.00
29549;BME280;16487;53.094;8.800;2023-04-04T11:41:53;102890.22;;;16.47;100.00
29549;BME280;16487;53.094;8.800;2023-04-04T11:44:21;102883.38;;;16.48;100.00
29549;BME280;16487;53.094;8.800;2023-04-04T11:46:54;102898.88;;;15.40;100.00
29549;BME280;16487;53.094;8.800;2023-04-04T11:49:25;102912.50;;;14.81;100.00
29549;BME280;16487;53.094;8.800;2023-04-04T11:51:53;102893.34;;;15.33;100.00
29549;BME280;16487;53.094;8.800;2023-04-04T11:54:22;102881.13;;;16.16;100.00
29549;BME280;16487;53.094;8.800;2023-04-04T11:56:49;102884.84;;;15.37;100.00
29549;BME280;16487;53.094;8.800;2023-04-04T11:59:18;102881.78;;;15.28;100.00
29549;BME280;16487;53.094;8.800;2023-04-04T12:01:46;102888.00;;;15.12;100.00
29549;BME280;16487;53.094;8.800;2023-04-04T12:04:16;102901.53;;;14.60;100.00
29549;BME280;16487;53.094;8.800;2023-04-04T12:06:46;102902.22;;;13.35;100.00
29549;BME280;16487;53.094;8.800;2023-04-04T12:09:15;102891.63;;;15.43;100.00
29549;BME280;16487;53.094;8.800;2023-04-04T12:11:44;102902.97;;;12.56;100.00
29549;BME280;16487;53.094;8.800;2023-04-04T12:14:16;102891.97;;;13.73;100.00
29549;BME280;16487;53.094;8.800;2023-04-04T12:16:43;102906.13;;;12.69;100.00
29549;BME280;16487;53.094;8.800;2023-04-04T12:19:11;102899.31;;;14.01;100.00
29549;BME280;16487;53.094;8.800;2023-04-04T12:21:39;102875.09;;;15.18;100.00
29549;BME280;16487;53.094;8.800;2023-04-04T12:24:07;102864.59;;;15.22;100.00
29549;BME280;16487;53.094;8.800;2023-04-04T12:26:36;102892.41;;;12.99;100.00
29549;BME280;16487;53.094;8.800;2023-04-04T12:29:05;102873.53;;;14.53;100.00
29549;BME280;16487;53.094;8.800;2023-04-04T12:31:35;102866.94;;;14.67;100.00
29549;BME280;16487;53.094;8.800;2023-04-04T12:34:02;102866.00;;;14.06;100.00
29549;BME280;16487;53.094;8.800;2023-04-04T12:36:30;102874.47;;;13.55;100.00
29549;BME280;16487;53.094;8.800;2023-04-04T12:39:01;102908.63;;;11.47;100.00
29549;BME280;16487;53.094;8.800;2023-04-04T12:41:31;102898.69;;;11.89;100.00
29549;BME280;16487;53.094;8.800;2023-04-04T12:44:00;102897.47;;;11.83;100.00
29549;BME280;16487;53.094;8.800;2023-04-04T12:46:34;102871.44;;;12.42;100.00
29549;BME280;16487;53.094;8.800;2023-04-04T12:49:02;102859.38;;;13.42;100.00
29549;BME280;16487;53.094;8.800;2023-04-04T12:51:30;102838.63;;;14.21;100.00
29549;BME280;16487;53.094;8.800;2023-04-04T12:53:57;102835.72;;;13.46;100.00
29549;BME280;16487;53.094;8.800;2023-04-04T12:56:25;102824.63;;;14.54;100.00
29549;BME280;16487;53.094;8.800;2023-04-04T12:58:59;102832.16;;;14.24;100.00
29549;BME280;16487;53.094;8.800;2023-04-04T13:01:30;102820.56;;;15.65;100.00
29549;BME280;16487;53.094;8.800;2023-04-04T13:04:00;102809.78;;;16.07;100.00